Time;durP1;ratioP1;P1;durP2;ratioP2;P2;SDS_P1;SDS_P2;PMS_P1;PMS_P2;Temp;Humidity;BMP_temperature;BMP_pressure;BME280_temperature;BME280_humidity;BME280_pressure;Samples;Min_cycle;Max_cycle;Signal;HPM_P1;HPM_P2
2024/03/04 00:00:46;;;;;;;15.35;10.15;;;8.90;99.90;;;;;;5039288;28;20021;-67
2024/03/04 00:03:12;;;;;;;16.50;9.88;;;;;;;;;;5036800;28;20041;-67
2024/03/04 00:05:39;;;;;;;17.58;9.93;;;8.90;99.90;;;;;;5031300;28;20032;-65
2024/03/04 00:08:05;;;;;;;17.70;10.07;;;;;;;;;;5037969;28;20072;-66
2024/03/04 00:10:31;;;;;;;15.80;9.35;;;;;;;;;;5038284;28;20021;-64
2024/03/04 00:12:57;;;;;;;13.45;9.10;;;8.90;99.90;;;;;;5039468;28;20037;-64
2024/03/04 00:15:23;;;;;;;19.67;11.77;;;8.80;99.90;;;;;;5022614;28;20034;-64
2024/03/04 00:17:52;;;;;;;19.10;12.00;;;8.80;99.90;;;;;;5041939;28;20033;-66
2024/03/04 00:20:18;;;;;;;;;;;8.90;99.90;;;;;;5043516;28;20040;-65
2024/03/04 00:22:47;;;;;;;16.25;9.77;;;8.80;99.90;;;;;;5031931;28;19917;-67
2024/03/04 00:25:16;;;;;;;24.48;12.68;;;8.80;99.90;;;;;;5023573;28;20018;-68
2024/03/04 00:27:42;;;;;;;;;;;8.80;99.90;;;;;;5024159;28;20113;-67
2024/03/04 00:30:08;;;;;;;17.50;11.90;;;9.10;99.90;;;;;;5023603;28;19909;-67
2024/03/04 00:32:41;;;;;;;21.10;10.80;;;;;;;;;;5025058;28;20032;-68
2024/03/04 00:35:09;;;;;;;19.27;10.57;;;9.20;99.90;;;;;;5043578;28;20057;-67
2024/03/04 00:37:35;;;;;;;16.90;10.38;;;;;;;;;;5042291;28;20396;-67
2024/03/04 00:40:05;;;;;;;17.88;11.02;;;9.10;99.90;;;;;;5043674;28;20038;-68
2024/03/04 00:42:32;;;;;;;18.45;12.50;;;8.90;99.90;;;;;;5043748;28;20040;-68
2024/03/04 00:45:02;;;;;;;22.02;12.82;;;9.00;99.90;;;;;;5043885;28;20024;-68
2024/03/04 00:47:28;;;;;;;19.80;11.38;;;9.10;99.90;;;;;;5043627;28;20032;-68
2024/03/04 00:49:54;;;;;;;14.77;9.80;;;;;;;;;;5042499;28;20321;-67
2024/03/04 00:52:20;;;;;;;21.27;12.80;;;;;;;;;;5043404;28;20033;-68
2024/03/04 00:54:46;;;;;;;19.73;12.15;;;;;;;;;;5043290;28;20014;-67
2024/03/04 00:57:12;;;;;;;20.25;13.10;;;;;;;;;;5058083;28;20029;-68
2024/03/04 00:59:38;;;;;;;19.33;13.02;;;;;;;;;;5048219;28;20017;-68
2024/03/04 01:02:07;;;;;;;22.58;11.77;;;9.00;99.90;;;;;;5045240;28;20092;-67
2024/03/04 01:04:34;;;;;;;21.08;13.70;;;9.00;99.90;;;;;;5045787;28;20092;-66
2024/03/04 01:06:59;;;;;;;23.23;13.68;;;9.10;99.90;;;;;;5045260;28;20484;-68
2024/03/04 01:09:25;;;;;;;22.23;13.73;;;;;;;;;;5045787;28;20021;-69
2024/03/04 01:11:56;;;;;;;22.67;12.68;;;9.10;99.90;;;;;;5045789;28;20020;-69
2024/03/04 01:14:22;;;;;;;16.70;10.63;;;9.10;99.90;;;;;;5045121;28;20592;-69
2024/03/04 01:16:49;;;;;;;21.73;12.68;;;;;;;;;;5045980;28;20039;-69
2024/03/04 01:19:15;;;;;;;22.48;13.20;;;9.30;99.90;;;;;;5045651;28;20021;-69
2024/03/04 01:21:41;;;;;;;22.90;12.82;;;9.30;99.90;;;;;;5045492;28;20056;-69
2024/03/04 01:24:07;;;;;;;21.23;14.43;;;;;;;;;;5045604;28;20013;-69
2024/03/04 01:26:34;;;;;;;26.45;13.95;;;;;;;;;;5045143;28;20075;-68
2024/03/04 01:28:59;;;;;;;19.13;13.32;;;9.30;99.90;;;;;;5045800;28;20013;-67
2024/03/04 01:31:25;;;;;;;16.23;8.93;;;9.20;99.90;;;;;;5045551;28;20109;-67
2024/03/04 01:33:51;;;;;;;16.77;8.10;;;;;;;;;;5045282;28;20363;-67
2024/03/04 01:36:18;;;;;;;12.25;7.20;;;;;;;;;;5043001;28;20403;-68
2024/03/04 01:38:43;;;;;;;10.30;6.05;;;9.60;99.90;;;;;;5043070;28;20033;-67
2024/03/04 01:41:11;;;;;;;11.63;6.85;;;;;;;;;;5043053;28;20025;-67
2024/03/04 01:43:37;;;;;;;10.15;6.47;;;;;;;;;;5042445;28;20093;-67
2024/03/04 01:46:04;;;;;;;8.38;5.75;;;;;;;;;;5042014;28;20314;-66
2024/03/04 01:48:30;;;;;;;17.40;9.00;;;9.90;99.90;;;;;;5042438;28;20024;-66
2024/03/04 01:50:57;;;;;;;16.83;8.82;;;;;;;;;;5040851;28;20317;-66
2024/03/04 01:53:25;;;;;;;10.77;5.68;;;10.00;99.90;;;;;;5042044;28;20068;-66
2024/03/04 01:56:03;;;;;;;14.48;7.70;;;10.10;99.90;;;;;;5041879;28;20026;-66
2024/03/04 01:58:35;;;;;;;16.92;11.35;;;10.50;99.90;;;;;;5041553;28;20326;-66
2024/03/04 02:01:02;;;;;;;14.80;8.77;;;10.20;99.90;;;;;;5041381;28;20214;-67
2024/03/04 02:03:30;;;;;;;18.20;10.55;;;10.20;99.90;;;;;;5041340;28;20033;-66
2024/03/04 02:05:58;;;;;;;10.80;6.60;;;10.10;99.90;;;;;;5041669;28;20076;-66
2024/03/04 02:08:24;;;;;;;11.32;6.38;;;;;;;;;;5040076;28;20068;-66
2024/03/04 02:10:51;;;;;;;21.92;12.32;;;10.20;99.90;;;;;;5041227;28;20020;-66
2024/03/04 02:13:20;;;;;;;18.17;12.27;;;10.10;99.90;;;;;;5041136;28;20067;-66
2024/03/04 02:15:47;;;;;;;17.98;12.48;;;;;;;;;;5040919;28;20080;-66
2024/03/04 02:18:14;;;;;;;22.38;13.15;;;9.60;99.90;;;;;;5041222;28;20096;-66
2024/03/04 02:20:45;;;;;;;24.45;14.63;;;9.50;99.90;;;;;;5040816;28;20013;-66
2024/03/04 02:23:12;;;;;;;21.25;12.73;;;9.70;99.90;;;;;;5040848;28;20029;-66
2024/03/04 02:25:52;;;;;;;21.77;9.20;;;9.50;99.90;;;;;;5039386;28;20326;-67
2024/03/04 02:28:18;;;;;;;12.40;6.43;;;9.70;99.90;;;;;;5042030;28;20037;-67
2024/03/04 02:30:45;;;;;;;18.63;10.10;;;;;;;;;;5046569;28;20021;-67
2024/03/04 02:33:11;;;;;;;15.75;10.60;;;;;;;;;;5046828;28;20048;-67
2024/03/04 02:35:37;;;;;;;10.95;6.15;;;;;;;;;;5039046;28;20095;-67
2024/03/04 02:38:04;;;;;;;8.65;5.60;;;9.90;99.90;;;;;;5039361;28;20355;-67
2024/03/04 02:40:30;;;;;;;11.45;6.53;;;;;;;;;;5040521;28;20248;-66
2024/03/04 02:42:55;;;;;;;13.50;5.82;;;9.80;99.90;;;;;;5040192;28;20194;-66
2024/03/04 02:45:22;;;;;;;10.38;5.65;;;9.90;99.90;;;;;;5029702;28;20129;-65
2024/03/04 02:47:48;;;;;;;19.60;13.10;;;;;;;;;;5020423;28;20033;-66
2024/03/04 02:50:14;;;;;;;15.75;10.20;;;9.80;99.90;;;;;;5034386;28;20025;-68
2024/03/04 02:52:41;;;;;;;13.60;7.53;;;9.50;99.90;;;;;;5040496;28;20041;-67
2024/03/04 02:55:08;;;;;;;13.60;7.15;;;;;;;;;;5040168;28;20229;-66
2024/03/04 02:57:33;;;;;;;11.20;6.70;;;9.30;99.90;;;;;;5040246;28;20029;-66
2024/03/04 02:59:59;;;;;;;10.15;6.65;;;;;;;;;;5039958;28;20022;-66
2024/03/04 03:02:27;;;;;;;11.18;6.90;;;9.30;99.90;;;;;;5040130;28;20064;-65
2024/03/04 03:04:52;;;;;;;9.35;7.40;;;9.10;99.90;;;;;;5040153;28;20198;-66
2024/03/04 03:07:18;;;;;;;15.02;6.88;;;;;;;;;;5038451;28;20325;-68
2024/03/04 03:09:44;;;;;;;7.40;5.50;;;;;;;;;;5039675;28;20013;-65
2024/03/04 03:12:10;;;;;;;11.98;5.97;;;;;;;;;;5039949;28;20073;-66
2024/03/04 03:14:37;;;;;;;14.15;6.80;;;9.20;99.80;;;;;;5038537;28;20025;-66
2024/03/04 03:17:03;;;;;;;10.27;6.40;;;;;;;;;;5039885;28;20339;-66
2024/03/04 03:19:29;;;;;;;9.75;6.55;;;9.40;99.80;;;;;;5039887;28;20372;-67
2024/03/04 03:21:55;;;;;;;11.50;6.72;;;9.20;99.90;;;;;;5039971;28;20017;-67
2024/03/04 03:24:23;;;;;;;12.40;7.18;;;8.90;99.90;;;;;;5039566;28;20026;-67
2024/03/04 03:26:49;;;;;;;14.63;7.97;;;;;;;;;;5039893;28;20233;-68
2024/03/04 03:29:15;;;;;;;10.75;6.82;;;8.80;99.90;;;;;;5039780;28;20040;-67
2024/03/04 03:31:41;;;;;;;12.73;7.85;;;8.90;99.90;;;;;;5039529;28;20029;-67
2024/03/04 03:34:08;;;;;;;16.13;8.60;;;;;;;;;;5039594;28;20091;-67
2024/03/04 03:36:35;;;;;;;13.85;7.47;;;8.90;99.90;;;;;;5039177;28;20636;-67
2024/03/04 03:39:04;;;;;;;15.63;8.07;;;;;;;;;;5039468;28;20249;-67
2024/03/04 03:41:30;;;;;;;;;;;8.90;99.90;;;;;;5040029;28;20021;-67
2024/03/04 03:43:56;;;;;;;11.77;8.52;;;8.70;99.90;;;;;;5039626;28;19917;-67
2024/03/04 03:46:22;;;;;;;17.42;8.88;;;8.60;99.90;;;;;;5020212;28;20191;-67
2024/03/04 03:48:48;;;;;;;17.50;9.20;;;;;;;;;;5021383;28;20033;-66
2024/03/04 03:51:13;;;;;;;15.88;10.05;;;8.70;99.90;;;;;;5026372;28;20014;-63
2024/03/04 03:53:41;;;;;;;16.77;10.63;;;;;;;;;;5026057;28;20273;-63
2024/03/04 03:56:07;;;;;;;19.35;10.63;;;;;;;;;;5026273;28;20022;-63
2024/03/04 03:58:32;;;;;;;19.13;11.05;;;8.60;99.90;;;;;;5041998;28;20345;-63
2024/03/04 04:00:58;;;;;;;15.30;10.95;;;;;;;;;;5025960;28;20077;-64
2024/03/04 04:03:25;;;;;;;16.52;11.40;;;;;;;;;;5026029;28;20033;-64
2024/03/04 04:05:51;;;;;;;17.83;11.50;;;;;;;;;;5026073;28;20021;-63
2024/03/04 04:08:17;;;;;;;25.35;12.70;;;;;;;;;;5026258;28;20029;-63
2024/03/04 04:10:42;;;;;;;19.63;12.63;;;8.70;99.90;;;;;;5043628;28;20091;-63
2024/03/04 04:13:09;;;;;;;18.00;11.40;;;;;;;;;;5045684;28;20041;-63
2024/03/04 04:15:34;;;;;;;18.15;12.63;;;8.60;99.90;;;;;;5045416;28;20033;-63
2024/03/04 04:18:00;;;;;;;18.50;13.45;;;;;;;;;;5045654;28;20041;-63
2024/03/04 04:20:27;;;;;;;21.17;12.65;;;8.90;99.90;;;;;;5045558;28;20115;-63
2024/03/04 04:22:53;;;;;;;20.65;13.32;;;;;;;;;;5045592;28;20041;-63
2024/03/04 04:25:21;;;;;;;22.80;13.40;;;;;;;;;;5045610;28;20017;-63
2024/03/04 04:27:46;;;;;;;20.70;12.88;;;8.60;99.90;;;;;;5045511;28;20287;-67
2024/03/04 04:30:14;;;;;;;22.40;13.73;;;8.60;99.90;;;;;;5045596;28;20032;-67
2024/03/04 04:32:41;;;;;;;20.77;13.80;;;8.60;99.90;;;;;;5045260;28;20093;-67
2024/03/04 04:35:07;;;;;;;23.63;13.77;;;8.60;99.90;;;;;;5043936;28;20060;-66
2024/03/04 04:37:33;;;;;;;21.85;12.80;;;;;;;;;;5045662;28;20064;-66
2024/03/04 04:39:59;;;;;;;24.08;13.50;;;;;;;;;;5045679;28;20056;-66
2024/03/04 04:42:26;;;;;;;20.67;13.57;;;;;;;;;;5045715;28;20037;-67
2024/03/04 04:44:52;;;;;;;21.95;13.50;;;8.70;99.90;;;;;;5045814;28;20017;-67
2024/03/04 04:47:18;;;;;;;18.27;12.70;;;;;;;;;;5045583;28;20071;-67
2024/03/04 04:49:43;;;;;;;21.95;12.27;;;8.30;99.90;;;;;;5045717;28;20114;-68
2024/03/04 04:52:09;;;;;;;18.17;12.32;;;8.50;99.90;;;;;;5045567;28;20215;-65
2024/03/04 04:54:35;;;;;;;22.48;12.68;;;;;;;;;;5045810;28;20368;-66
2024/03/04 04:57:01;;;;;;;18.15;12.27;;;;;;;;;;5045581;28;20026;-66
2024/03/04 04:59:26;;;;;;;22.17;12.73;;;8.40;99.90;;;;;;5045251;28;20087;-65
2024/03/04 05:01:52;;;;;;;22.45;14.18;;;;;;;;;;5040809;28;20117;-65
2024/03/04 05:04:18;;;;;;;18.17;13.18;;;;;;;;;;5041334;28;20063;-65
2024/03/04 05:06:45;;;;;;;20.70;12.55;;;;;;;;;;5041260;28;20026;-64
2024/03/04 05:09:11;;;;;;;19.10;12.50;;;7.90;99.90;;;;;;5041788;28;20060;-65
2024/03/04 05:11:37;;;;;;;22.17;12.38;;;;;;;;;;5040748;28;20117;-66
2024/03/04 05:14:03;;;;;;;20.20;11.98;;;;;;;;;;5041991;28;20025;-65
2024/03/04 05:16:29;;;;;;;21.65;12.07;;;;;;;;;;5041692;28;20022;-64
2024/03/04 05:18:56;;;;;;;21.35;13.07;;;;;;;;;;5042015;28;20022;-66
2024/03/04 05:21:24;;;;;;;20.83;13.40;;;8.50;99.90;;;;;;5041742;28;20513;-66
2024/03/04 05:23:49;;;;;;;25.60;13.75;;;8.50;99.90;;;;;;5038515;28;20026;-65
2024/03/04 05:26:15;;;;;;;23.60;13.77;;;;;;;;;;5034318;28;20088;-66
2024/03/04 05:28:42;;;;;;;20.55;13.77;;;8.50;99.90;;;;;;5040545;28;20379;-67
2024/03/04 05:31:08;;;;;;;22.52;14.60;;;8.30;99.90;;;;;;5021746;28;20089;-65
2024/03/04 05:33:36;;;;;;;20.48;14.00;;;;;;;;;;5027877;28;20046;-66
2024/03/04 05:36:08;;;;;;;24.27;14.52;;;8.20;99.90;;;;;;5052339;28;20064;-67
2024/03/04 05:38:34;;;;;;;22.48;14.10;;;;;;;;;;5040039;28;20040;-67
2024/03/04 05:40:59;;;;;;;21.48;14.95;;;8.30;99.90;;;;;;5040190;28;20232;-63
2024/03/04 05:43:26;;;;;;;23.92;14.73;;;8.20;99.90;;;;;;5041498;28;20060;-63
2024/03/04 05:45:53;;;;;;;28.15;15.77;;;;;;;;;;5040094;28;20471;-64
2024/03/04 05:48:19;;;;;;;24.52;15.80;;;;;;;;;;5041642;28;20033;-65
2024/03/04 05:50:46;;;;;;;25.00;14.93;;;8.20;99.90;;;;;;5040217;28;20352;-64
2024/03/04 05:53:12;;;;;;;26.23;16.17;;;;;;;;;;5041491;28;20029;-66
2024/03/04 05:55:38;;;;;;;22.10;15.48;;;;;;;;;;5034744;28;20026;-64
2024/03/04 05:58:05;;;;;;;22.42;15.10;;;8.50;99.90;;;;;;5041449;28;20041;-68
2024/03/04 06:00:32;;;;;;;25.15;14.95;;;;;;;;;;5041568;28;20025;-64
2024/03/04 06:02:58;;;;;;;25.35;15.40;;;8.20;99.90;;;;;;5042139;28;20066;-66
2024/03/04 06:05:24;;;;;;;26.23;15.93;;;8.20;99.90;;;;;;5033166;28;20321;-65
2024/03/04 06:07:51;;;;;;;25.45;14.68;;;;;;;;;;5024869;28;20030;-64
2024/03/04 06:10:19;;;;;;;25.92;15.73;;;;;;;;;;5023581;28;20338;-69
2024/03/04 06:12:45;;;;;;;23.42;15.52;;;;;;;;;;5025366;28;20034;-64
2024/03/04 06:15:11;;;;;;;22.27;14.60;;;;;;;;;;5043872;28;20021;-63
2024/03/04 06:17:37;;;;;;;29.45;17.20;;;8.20;99.90;;;;;;5042977;28;20340;-63
2024/03/04 06:20:09;;;;;;;27.13;16.80;;;;;;;;;;5043141;28;20056;-70
2024/03/04 06:22:38;;;;;;;23.63;16.15;;;;;;;;;;5042102;28;20323;-69
2024/03/04 06:25:05;;;;;;;26.13;15.85;;;8.20;99.90;;;;;;5043798;28;20013;-64
2024/03/04 06:27:31;;;;;;;26.73;15.60;;;;;;;;;;5043879;28;20037;-66
2024/03/04 06:29:57;;;;;;;29.83;15.82;;;;;;;;;;5040969;28;20036;-64
2024/03/04 06:32:22;;;;;;;28.27;17.77;;;8.50;99.90;;;;;;5040754;28;20313;-63
2024/03/04 06:34:49;;;;;;;25.75;16.55;;;;;;;;;;5040295;28;20049;-68
2024/03/04 06:37:16;;;;;;;27.13;15.30;;;;;;;;;;5041048;28;20040;-63
2024/03/04 06:39:42;;;;;;;25.65;16.25;;;;;;;;;;5041802;28;20021;-63
2024/03/04 06:42:07;;;;;;;26.42;15.75;;;8.60;99.90;;;;;;5041792;28;20276;-64
2024/03/04 06:44:35;;;;;;;29.38;17.33;;;8.50;99.90;;;;;;5031573;28;20029;-66
2024/03/04 06:47:01;;;;;;;35.92;18.20;;;;;;;;;;5040851;28;20053;-63
2024/03/04 06:49:28;;;;;;;26.13;16.38;;;8.70;99.90;;;;;;5041135;28;20371;-66
2024/03/04 06:51:54;;;;;;;28.25;16.23;;;;;;;;;;5040141;28;20064;-63
2024/03/04 06:54:20;;;;;;;31.70;17.10;;;;;;;;;;5040305;28;20028;-64
2024/03/04 06:56:46;;;;;;;26.50;15.30;;;;;;;;;;5039778;28;20026;-65
2024/03/04 06:59:12;;;;;;;29.13;17.08;;;;;;;;;;5039214;28;20085;-65
2024/03/04 07:01:38;;;;;;;24.98;15.82;;;;;;;;;;5038878;28;20289;-64
2024/03/04 07:04:04;;;;;;;28.80;15.68;;;;;;;;;;5038381;28;20041;-66
2024/03/04 07:06:30;;;;;;;23.05;15.80;;;9.00;99.90;;;;;;5038479;28;20021;-63
2024/03/04 07:08:57;;;;;;;26.67;15.95;;;;;;;;;;5040001;28;20093;-65
2024/03/04 07:11:23;;;;;;;26.95;15.52;;;9.30;99.90;;;;;;5039169;28;20018;-63
2024/03/04 07:13:48;;;;;;;25.20;16.85;;;9.30;99.90;;;;;;5035088;28;20020;-63
2024/03/04 07:16:15;;;;;;;26.63;15.75;;;9.30;99.90;;;;;;5038099;28;20045;-63
2024/03/04 07:18:42;;;;;;;29.27;16.50;;;9.30;99.90;;;;;;5038553;28;20029;-63
2024/03/04 07:21:08;;;;;;;22.50;14.90;;;;;;;;;;5040045;28;20048;-64
2024/03/04 07:23:37;;;;;;;28.83;17.15;;;9.90;99.90;;;;;;5039115;28;20369;-63
2024/03/04 07:26:06;;;;;;;27.98;16.15;;;9.50;99.90;;;;;;5040034;28;20044;-63
2024/03/04 07:28:32;;;;;;;;;;;9.60;99.10;;;;;;5039710;28;20120;-64
2024/03/04 07:30:59;;;;;;;24.33;15.52;;;9.60;99.90;;;;;;5039206;28;19909;-63
2024/03/04 07:33:24;;;;;;;27.20;16.58;;;9.80;99.90;;;;;;5039491;28;20262;-63
2024/03/04 07:35:51;;;;;;;26.52;14.80;;;9.90;97.90;;;;;;5039588;28;20071;-64
2024/03/04 07:38:17;;;;;;;25.40;15.93;;;;;;;;;;5039724;28;20109;-64
2024/03/04 07:40:43;;;;;;;23.63;15.32;;;10.10;99.90;;;;;;5040043;28;20324;-65
2024/03/04 07:43:08;;;;;;;25.80;15.40;;;10.20;99.90;;;;;;5039571;28;20050;-64
2024/03/04 07:45:34;;;;;;;27.10;15.50;;;;;;;;;;5039305;28;20030;-65
2024/03/04 07:48:00;;;;;;;24.27;14.48;;;;;;;;;;5039550;28;20099;-63
2024/03/04 07:50:26;;;;;;;23.15;15.20;;;10.70;99.90;;;;;;5039174;28;20325;-63
2024/03/04 07:52:52;;;;;;;25.95;16.48;;;;;;;;;;5033142;28;20045;-64
2024/03/04 07:55:18;;;;;;;24.85;15.50;;;;;;;;;;5028409;28;20321;-64
2024/03/04 07:57:44;;;;;;;20.88;14.15;;;;;;;;;;5033588;28;20352;-64
2024/03/04 08:00:15;;;;;;;26.13;16.23;;;10.90;99.90;;;;;;5040257;28;20642;-66
2024/03/04 08:02:44;;;;;;;21.83;14.98;;;11.10;92.70;;;;;;5040509;28;20051;-64
2024/03/04 08:05:10;;;;;;;25.88;15.43;;;11.10;98.70;;;;;;5040569;28;20309;-64
2024/03/04 08:07:37;;;;;;;25.73;15.35;;;11.10;92.30;;;;;;5040373;28;20095;-64
2024/03/04 08:10:08;;;;;;;25.05;15.68;;;11.00;94.00;;;;;;5040647;28;20040;-65
2024/03/04 08:12:35;;;;;;;24.80;16.80;;;11.30;92.20;;;;;;5040895;28;20085;-65
2024/03/04 08:15:02;;;;;;;26.88;17.42;;;11.40;91.80;;;;;;5040308;28;20033;-64
2024/03/04 08:17:28;;;;;;;24.33;13.88;;;;;;;;;;5039614;28;20100;-65
2024/03/04 08:19:56;;;;;;;25.27;15.70;;;11.50;91.30;;;;;;5040235;28;20215;-64
2024/03/04 08:22:22;;;;;;;25.70;16.10;;;;;;;;;;5040306;28;20045;-64
2024/03/04 08:24:49;;;;;;;23.25;14.20;;;;;;;;;;5040232;28;20029;-64
2024/03/04 08:27:16;;;;;;;24.25;14.77;;;11.50;91.80;;;;;;5039683;28;20689;-65
2024/03/04 08:29:42;;;;;;;26.85;16.60;;;11.40;93.20;;;;;;5039603;28;20132;-67
2024/03/04 08:32:08;;;;;;;22.40;15.18;;;;;;;;;;5038476;28;20033;-63
2024/03/04 08:34:33;;;;;;;27.20;16.23;;;11.50;96.70;;;;;;5038501;28;20075;-63
2024/03/04 08:37:00;;;;;;;26.10;15.40;;;11.60;96.40;;;;;;5041412;28;20048;-64
2024/03/04 08:39:26;;;;;;;28.30;16.95;;;11.90;96.00;;;;;;5042412;28;20013;-64
2024/03/04 08:41:52;;;;;;;28.27;16.23;;;;;;;;;;5041219;28;20029;-64
2024/03/04 08:44:19;;;;;;;19.50;13.07;;;;;;;;;;5042586;28;20097;-64
2024/03/04 08:46:45;;;;;;;24.13;14.40;;;;;;;;;;5042497;28;20026;-64
2024/03/04 08:49:13;;;;;;;22.70;14.02;;;;;;;;;;5024712;28;20117;-64
2024/03/04 08:51:39;;;;;;;24.02;13.93;;;12.90;83.60;;;;;;5042373;28;20060;-64
2024/03/04 08:54:05;;;;;;;20.20;12.82;;;12.50;82.20;;;;;;5042512;28;20025;-63
2024/03/04 08:56:30;;;;;;;23.42;13.93;;;12.80;92.10;;;;;;5042120;28;20075;-63
2024/03/04 08:58:58;;;;;;;19.80;12.60;;;12.80;90.40;;;;;;5042034;28;20033;-64
2024/03/04 09:01:25;;;;;;;22.30;12.70;;;12.80;91.70;;;;;;5041622;28;20033;-64
2024/03/04 09:03:52;;;;;;;25.60;15.13;;;12.90;86.20;;;;;;5041140;28;20053;-64
2024/03/04 09:06:18;;;;;;;24.40;15.73;;;12.70;90.90;;;;;;5042103;28;20029;-63
2024/03/04 09:08:44;;;;;;;24.23;15.40;;;13.10;91.40;;;;;;5042207;28;20052;-63
2024/03/04 09:11:11;;;;;;;23.08;14.52;;;;;;;;;;5041754;28;20028;-63
2024/03/04 09:13:37;;;;;;;21.77;13.73;;;;;;;;;;5041818;28;20056;-63
2024/03/04 09:16:04;;;;;;;21.83;14.18;;;13.00;90.10;;;;;;5041670;28;20029;-63
2024/03/04 09:18:30;;;;;;;20.30;13.57;;;13.20;76.90;;;;;;5041655;28;20049;-64
2024/03/04 09:20:56;;;;;;;21.08;13.48;;;;;;;;;;5041545;28;20174;-64
2024/03/04 09:23:23;;;;;;;21.05;14.05;;;13.50;89.00;;;;;;5041508;28;20103;-64
2024/03/04 09:25:49;;;;;;;22.60;13.10;;;13.60;88.90;;;;;;5041240;28;20055;-64
2024/03/04 09:28:15;;;;;;;23.33;14.90;;;13.60;87.70;;;;;;5041189;28;20025;-63
2024/03/04 09:30:42;;;;;;;24.88;15.18;;;13.90;87.70;;;;;;5041275;28;20021;-64
2024/03/04 09:33:08;;;;;;;20.55;13.10;;;13.60;88.10;;;;;;5041186;28;20421;-64
2024/03/04 09:35:36;;;;;;;23.90;14.63;;;13.90;87.70;;;;;;5041157;28;20045;-63
2024/03/04 09:38:03;;;;;;;20.25;14.00;;;;;;;;;;5041447;28;20057;-64
2024/03/04 09:40:29;;;;;;;22.23;13.27;;;14.00;81.20;;;;;;5041459;28;20305;-64
2024/03/04 09:42:58;;;;;;;21.13;13.77;;;13.90;86.50;;;;;;5041204;28;20076;-64
2024/03/04 09:45:26;;;;;;;21.48;13.65;;;14.10;72.90;;;;;;5040869;28;20059;-64
2024/03/04 09:47:55;;;;;;;23.65;14.65;;;14.10;86.30;;;;;;5040648;28;20081;-63
2024/03/04 09:50:22;;;;;;;21.90;14.13;;;14.40;85.90;;;;;;5041105;28;20036;-63
2024/03/04 09:52:54;;;;;;;19.88;13.82;;;14.40;85.70;;;;;;5041245;28;20033;-63
2024/03/04 09:55:20;;;;;;;23.65;14.15;;;14.50;85.60;;;;;;5041030;28;20093;-63
2024/03/04 09:57:46;;;;;;;25.17;16.02;;;;;;;;;;5039550;28;20032;-64
2024/03/04 10:00:16;;;;;;;21.55;13.93;;;14.70;84.10;;;;;;5040900;28;20028;-70
2024/03/04 10:02:43;;;;;;;21.90;13.50;;;14.80;83.80;;;;;;5040745;28;20057;-65
2024/03/04 10:05:13;;;;;;;22.38;13.30;;;15.00;70.60;;;;;;5040760;28;20025;-64
2024/03/04 10:07:39;;;;;;;21.77;14.15;;;14.90;82.30;;;;;;5040780;28;20052;-63
2024/03/04 10:10:06;;;;;;;19.45;13.77;;;15.10;69.20;;;;;;5040620;28;20018;-64
2024/03/04 10:12:32;;;;;;;24.63;14.43;;;;;;;;;;5040677;28;20354;-63
2024/03/04 10:15:09;;;;;;;23.50;15.63;;;15.30;81.20;;;;;;5040702;28;20032;-63
2024/03/04 10:17:37;;;;;;;24.60;14.18;;;15.30;81.30;;;;;;5040632;28;20028;-63
2024/03/04 10:20:08;;;;;;;19.70;13.07;;;15.30;80.20;;;;;;5040364;28;20068;-64
2024/03/04 10:22:41;;;;;;;22.75;13.35;;;15.60;79.80;;;;;;5040553;28;20029;-64
2024/03/04 10:25:13;;;;;;;21.50;12.75;;;15.70;79.90;;;;;;5040682;28;20057;-68
2024/03/04 10:27:41;;;;;;;21.15;13.10;;;15.90;79.60;;;;;;5039387;28;20108;-65
2024/03/04 10:30:24;;;;;;;24.27;11.97;;;15.90;77.40;;;;;;5040448;28;20084;-64
2024/03/04 10:32:57;;;;;;;22.42;12.57;;;16.00;77.40;;;;;;5040676;28;20092;-66
2024/03/04 10:35:25;;;;;;;17.73;12.73;;;15.90;65.40;;;;;;5040427;28;20272;-64
2024/03/04 10:37:55;;;;;;;24.55;13.00;;;15.80;77.20;;;;;;5040427;28;20044;-65
2024/03/04 10:40:21;;;;;;;18.23;11.63;;;16.30;76.70;;;;;;5040346;28;20071;-64
2024/03/04 10:42:47;;;;;;;15.48;11.75;;;16.30;76.90;;;;;;5040526;28;20100;-64
2024/03/04 10:45:15;;;;;;;17.10;11.27;;;16.10;64.70;;;;;;5040600;28;20044;-65
2024/03/04 10:47:42;;;;;;;29.00;13.20;;;16.20;75.00;;;;;;5040795;28;20037;-65
2024/03/04 10:50:12;;;;;;;19.77;13.47;;;16.60;77.80;;;;;;5040483;28;20071;-67
2024/03/04 10:52:39;;;;;;;19.65;13.52;;;16.40;75.40;;;;;;5040193;28;20595;-64
2024/03/04 10:55:05;;;;;;;24.73;13.88;;;16.50;75.20;;;;;;5039041;28;20034;-65
2024/03/04 10:57:33;;;;;;;22.67;12.23;;;16.50;74.50;;;;;;5040414;28;20036;-70
2024/03/04 11:02:59;;;;;;;17.00;11.48;;;16.80;73.80;;;;;;5040310;28;20077;-65
2024/03/04 11:05:26;;;;;;;20.02;13.38;;;16.30;73.80;;;;;;5040399;28;20022;-65
2024/03/04 11:08:04;;;;;;;19.23;12.35;;;16.60;61.70;;;;;;5040323;28;20317;-65
2024/03/04 11:10:47;;;;;;;18.03;11.23;;;16.70;60.50;;;;;;5040179;28;20032;-65
2024/03/04 11:13:33;;;;;;;18.50;11.32;;;16.80;73.20;;;;;;5040229;28;20313;-69
2024/03/04 11:16:16;;;;;;;16.00;11.30;;;17.00;72.80;;;;;;5048273;28;20024;-66
2024/03/04 11:19:05;;;;;;;22.55;11.95;;;17.30;71.50;;;;;;5042888;28;20037;-66
2024/03/04 11:21:31;;;;;;;;;;;17.10;58.90;;;;;;5042838;28;20338;-65
2024/03/04 11:23:57;;;;;;;16.85;11.57;;;17.10;72.00;;;;;;5041255;28;20326;-66
2024/03/04 11:26:23;;;;;;;23.63;12.00;;;17.30;72.20;;;;;;5042263;28;20034;-66
2024/03/04 11:28:51;;;;;;;18.50;11.55;;;17.30;71.40;;;;;;5041376;28;20022;-67
2024/03/04 11:31:37;;;;;;;17.77;10.50;;;17.30;70.90;;;;;;5042078;28;20026;-65
2024/03/04 11:34:08;;;;;;;19.67;12.15;;;17.30;70.90;;;;;;5042057;28;20033;-66
2024/03/04 11:36:35;;;;;;;20.05;11.52;;;17.30;71.10;;;;;;5041936;28;20049;-67
2024/03/04 11:39:20;;;;;;;16.10;11.10;;;17.60;58.90;;;;;;5042173;28;20041;-66
2024/03/04 11:41:52;;;;;;;13.43;8.82;;;17.90;59.90;;;;;;5041837;28;20018;-66
2024/03/04 11:44:28;;;;;;;12.77;6.75;;;17.70;68.90;;;;;;5041484;28;20048;-66
2024/03/04 11:46:55;;;;;;;21.40;10.43;;;17.90;67.80;;;;;;5041275;28;20369;-71
2024/03/04 11:49:32;;;;;;;16.50;8.18;;;18.10;67.60;;;;;;5041128;28;20025;-65
2024/03/04 11:52:04;;;;;;;8.48;4.93;;;18.00;65.30;;;;;;5040707;28;20017;-66
2024/03/04 11:54:33;;;;;;;11.43;5.95;;;18.10;64.30;;;;;;5040517;28;20017;-68
2024/03/04 11:56:59;;;;;;;;;;;18.00;53.70;;;;;;5041468;28;20026;-65
2024/03/04 11:59:25;;;;;;;14.57;8.70;;;18.50;64.70;;;;;;5040110;28;19901;-72
2024/03/04 12:01:52;;;;;;;10.50;7.03;;;18.20;64.30;;;;;;5040158;28;20213;-67
2024/03/04 12:04:26;;;;;;;11.23;7.25;;;18.50;64.30;;;;;;5039666;28;20033;-66
2024/03/04 12:06:53;;;;;;;12.35;6.10;;;18.50;63.60;;;;;;5040361;28;20060;-66
2024/03/04 12:09:19;;;;;;;7.40;5.28;;;18.70;62.50;;;;;;5039147;28;20052;-66
2024/03/04 12:11:45;;;;;;;8.65;5.97;;;18.70;52.20;;;;;;5043602;28;20045;-64
2024/03/04 12:14:12;;;;;;;12.23;6.80;;;18.90;62.50;;;;;;5043212;28;20048;-65
2024/03/04 12:16:38;;;;;;;10.15;7.03;;;19.00;61.40;;;;;;5043480;28;20052;-65
2024/03/04 12:19:05;;;;;;;9.75;5.93;;;19.20;61.20;;;;;;5043229;28;20033;-67
2024/03/04 12:21:31;;;;;;;8.70;5.47;;;19.10;60.90;;;;;;5043319;28;20092;-66
2024/03/04 12:23:58;;;;;;;11.07;7.90;;;;;;;;;;5043289;28;20280;-66
2024/03/04 12:26:24;;;;;;;14.32;8.90;;;19.10;50.20;;;;;;5043144;28;20018;-65
2024/03/04 12:29:04;;;;;;;12.90;8.65;;;19.20;51.20;;;;;;5042921;28;20025;-65
2024/03/04 12:31:31;;;;;;;13.05;8.30;;;19.00;61.70;;;;;;5042774;28;20642;-65
2024/03/04 12:33:57;;;;;;;13.30;8.45;;;19.40;61.60;;;;;;5042819;28;20056;-68
2024/03/04 12:36:24;;;;;;;13.02;7.32;;;19.50;61.70;;;;;;5042557;28;20360;-65
2024/03/04 12:38:53;;;;;;;23.05;8.48;;;19.50;51.90;;;;;;5042586;28;20394;-66
2024/03/04 12:41:23;;;;;;;11.20;8.10;;;19.70;50.60;;;;;;5042581;28;20316;-68
2024/03/04 12:43:49;;;;;;;15.27;8.13;;;19.80;51.10;;;;;;5042640;28;20045;-67
2024/03/04 12:46:16;;;;;;;14.52;9.32;;;19.70;59.40;;;;;;5042667;28;20331;-66
2024/03/04 12:48:42;;;;;;;13.05;8.65;;;20.20;59.70;;;;;;5042358;28;20293;-72
2024/03/04 12:51:09;;;;;;;6.97;4.40;;;20.00;50.20;;;;;;5042452;28;20029;-69
2024/03/04 12:53:35;;;;;;;5.13;2.97;;;20.00;49.70;;;;;;5042554;28;20029;-66
2024/03/04 12:56:01;;;;;;;8.20;5.55;;;20.10;47.80;;;;;;5042247;28;20276;-70
2024/03/04 12:58:27;;;;;;;15.00;5.38;;;20.20;47.20;;;;;;5043079;28;20034;-66
2024/03/04 13:00:53;;;;;;;5.75;3.38;;;20.50;47.40;;;;;;5042288;28;20373;-66
2024/03/04 13:03:20;;;;;;;6.28;4.05;;;21.30;46.40;;;;;;5041704;28;20041;-66
2024/03/04 13:05:45;;;;;;;7.78;4.95;;;25.60;42.40;;;;;;5043065;28;20037;-66
2024/03/04 13:08:11;;;;;;;8.77;4.72;;;29.70;37.50;;;;;;5041877;28;20104;-66
2024/03/04 13:10:40;;;;;;;8.35;5.47;;;32.60;34.30;;;;;;5042883;28;20036;-67
2024/03/04 13:13:08;;;;;;;13.27;6.50;;;34.80;32.00;;;;;;5043228;28;20040;-67